Time;durP1;ratioP1;P1;durP2;ratioP2;P2;SDS_P1;SDS_P2;PMS_P1;PMS_P2;Temp;Humidity;BMP_temperature;BMP_pressure;BME280_temperature;BME280_humidity;BME280_pressure;Samples;Min_cycle;Max_cycle;Signal;HPM_P1;HPM_P2
2021/07/07 00:01:03;;;;;;;2.63;1.70;;;;;;;21.95;51.21;101087.09;4996010;28;20040;-71
2021/07/07 00:03:29;;;;;;;3.65;2.08;;;;;;;21.94;51.38;101093.25;5013529;28;20026;-71
2021/07/07 00:05:54;;;;;;;3.75;2.10;;;;;;;21.96;51.15;101087.97;5013548;28;20061;-70
2021/07/07 00:08:20;;;;;;;4.35;1.90;;;;;;;21.95;51.39;101087.09;4995799;28;20388;-71
2021/07/07 00:10:46;;;;;;;4.15;3.35;;;;;;;21.96;50.81;101090.63;5013522;28;20396;-70
2021/07/07 00:13:12;;;;;;;5.15;2.05;;;;;;;21.93;51.14;101082.78;4992483;28;20046;-71
2021/07/07 00:15:38;;;;;;;4.90;2.63;;;;;;;21.94;51.03;101088.00;4960577;28;20037;-71
2021/07/07 00:18:08;;;;;;;4.10;2.25;;;;;;;21.95;50.82;101083.59;4994183;28;20477;-71
2021/07/07 00:20:37;;;;;;;3.90;2.38;;;;;;;21.94;50.96;101085.38;4993879;28;20042;-70
2021/07/07 00:23:04;;;;;;;5.05;2.10;;;;;;;21.93;51.19;101085.41;4992750;28;20110;-71
2021/07/07 00:25:29;;;;;;;3.80;1.85;;;;;;;21.91;51.22;101087.19;4993779;28;20499;-71
2021/07/07 00:27:55;;;;;;;4.30;1.70;;;;;;;21.89;50.91;101083.72;4993816;28;20058;-70
2021/07/07 00:30:20;;;;;;;6.25;2.45;;;;;;;21.95;50.90;101094.13;4992573;28;20362;-71
2021/07/07 00:32:46;;;;;;;3.10;1.90;;;;;;;21.93;51.08;101088.94;4992399;28;20073;-70
2021/07/07 00:35:12;;;;;;;2.53;1.67;;;;;;;21.93;50.81;101094.19;4992550;28;20495;-71
2021/07/07 00:37:38;;;;;;;5.90;2.35;;;;;;;21.94;50.81;101098.53;4993726;28;20042;-71
2021/07/07 00:40:05;;;;;;;3.67;2.25;;;;;;;21.92;51.10;101091.56;4993716;28;20392;-70
2021/07/07 00:42:30;;;;;;;2.78;1.70;;;;;;;21.93;51.13;101099.47;4993548;28;20054;-71
2021/07/07 00:44:56;;;;;;;3.15;2.05;;;;;;;21.93;51.17;101096.81;4993549;28;20054;-70
2021/07/07 00:47:21;;;;;;;2.50;1.73;;;;;;;21.93;50.95;101094.19;4993571;28;20030;-71
2021/07/07 00:49:46;;;;;;;2.60;2.00;;;;;;;21.93;51.09;101090.69;4993679;28;20027;-71
2021/07/07 00:52:12;;;;;;;4.15;2.28;;;;;;;21.94;51.34;101102.97;4993661;28;20065;-70
2021/07/07 00:54:38;;;;;;;6.28;1.83;;;;;;;21.91;51.23;101093.34;4993488;28;20158;-71
2021/07/07 00:57:04;;;;;;;4.03;1.73;;;;;;;21.91;51.21;101090.72;4993612;28;20510;-70
2021/07/07 00:59:31;;;;;;;4.80;2.13;;;;;;;21.92;51.30;101089.81;4996333;28;20038;-70
2021/07/07 01:01:56;;;;;;;3.22;1.77;;;;;;;21.90;51.23;101090.72;4996092;28;20069;-70
2021/07/07 01:04:22;;;;;;;2.75;2.55;;;;;;;21.92;51.33;101096.84;4995961;28;20030;-71
2021/07/07 01:06:47;;;;;;;4.50;2.03;;;;;;;21.91;51.27;101101.25;4997067;28;20038;-71
2021/07/07 01:09:12;;;;;;;2.63;1.58;;;;;;;21.88;51.34;101092.50;4997005;28;20054;-71
2021/07/07 01:11:38;;;;;;;2.80;1.70;;;;;;;21.82;51.40;101080.28;4997518;28;20481;-70
2021/07/07 01:14:04;;;;;;;5.22;2.22;;;;;;;21.88;51.23;101092.50;5016558;28;20038;-70
2021/07/07 01:16:30;;;;;;;3.88;2.47;;;;;;;21.89;51.39;101100.38;4999062;28;20038;-71
2021/07/07 01:18:55;;;;;;;6.38;2.25;;;;;;;21.89;51.32;101099.50;4999629;28;20030;-70
2021/07/07 01:21:22;;;;;;;5.40;1.85;;;;;;;21.89;51.18;101099.50;5018119;28;20487;-71
2021/07/07 01:23:47;;;;;;;3.03;2.20;;;;;;;21.90;51.21;101101.25;5021496;28;20079;-70
2021/07/07 01:26:13;;;;;;;2.38;1.65;;;;;;;21.89;51.15;101096.88;5020603;28;20098;-71
2021/07/07 01:28:39;;;;;;;3.20;1.88;;;;;;;21.88;51.31;101096.00;4983126;28;20037;-71
2021/07/07 01:31:05;;;;;;;4.03;2.08;;;;;;;21.85;51.14;101093.41;4998980;28;20056;-71
2021/07/07 01:33:32;;;;;;;2.85;2.20;;;;;;;21.88;51.25;101098.66;4998783;28;20045;-71
2021/07/07 01:35:57;;;;;;;2.58;1.60;;;;;;;21.84;51.14;101091.69;5016310;28;20037;-71
2021/07/07 01:38:22;;;;;;;2.97;1.90;;;;;;;21.84;51.20;101094.31;4998410;28;20030;-71
2021/07/07 01:40:48;;;;;;;2.80;1.63;;;;;;;21.85;51.10;101092.53;5016112;28;20473;-71
2021/07/07 01:43:13;;;;;;;4.07;1.90;;;;;;;21.87;51.21;101096.03;4982407;28;20041;-75
2021/07/07 01:45:39;;;;;;;5.28;1.75;;;;;;;21.85;50.93;101092.53;5016024;28;20436;-75
2021/07/07 01:48:04;;;;;;;3.13;2.00;;;;;;;21.85;51.02;101084.66;4982322;28;20053;-75
2021/07/07 01:50:30;;;;;;;2.13;1.70;;;;;;;21.85;51.16;101085.53;4998470;28;20038;-71
2021/07/07 01:52:57;;;;;;;3.45;1.50;;;;;;;21.84;50.99;101083.78;5015713;28;20058;-71
2021/07/07 01:55:25;;;;;;;4.85;2.00;;;;;;;21.86;50.96;101094.28;5015692;28;20105;-71
2021/07/07 01:57:51;;;;;;;4.35;1.70;;;;;;;21.83;51.14;101092.56;5015754;28;20415;-71
2021/07/07 02:00:30;;;;;;;4.78;2.00;;;;;;;21.86;51.06;101102.19;4997897;28;20037;-71
2021/07/07 02:02:57;;;;;;;3.70;2.00;;;;;;;21.86;51.18;101091.66;4997941;28;20030;-71
2021/07/07 02:05:25;;;;;;;2.58;1.63;;;;;;;21.85;51.24;101095.19;5015535;28;20376;-71
2021/07/07 02:07:51;;;;;;;4.38;1.83;;;;;;;21.85;51.21;101100.44;5015395;28;20038;-71
2021/07/07 02:10:17;;;;;;;3.25;1.67;;;;;;;21.85;51.05;101096.06;4997595;28;20040;-71
2021/07/07 02:12:43;;;;;;;3.55;2.20;;;;;;;21.84;51.20;101096.06;4997557;28;20053;-71
2021/07/07 02:15:13;;;;;;;3.65;1.77;;;;;;;21.85;51.09;101097.81;4981626;28;20417;-71
2021/07/07 02:17:39;;;;;;;7.80;2.17;;;;;;;21.85;51.40;101095.19;5015348;28;20065;-71
2021/07/07 02:20:10;;;;;;;5.25;1.60;;;;;;;21.83;51.25;101100.47;5015524;28;20495;-71
2021/07/07 02:22:37;;;;;;;2.88;1.77;;;;;;;21.84;51.26;101098.69;5015423;28;20033;-71
2021/07/07 02:25:05;;;;;;;4.00;2.25;;;;;;;21.82;51.16;101095.22;4997567;28;20033;-71
2021/07/07 02:27:30;;;;;;;3.67;1.98;;;;;;;21.81;51.10;101096.97;4997592;28;20167;-71
2021/07/07 02:29:56;;;;;;;3.70;1.80;;;;;;;21.82;51.17;101095.22;4997649;28;20064;-71
2021/07/07 02:32:21;;;;;;;3.05;1.70;;;;;;;21.84;51.29;101112.72;4997729;28;20091;-71
2021/07/07 02:34:46;;;;;;;5.78;2.58;;;;;;;21.84;51.24;101104.84;5015031;28;20025;-71
2021/07/07 02:37:12;;;;;;;4.97;1.85;;;;;;;21.84;51.16;101103.97;5014912;28;20036;-71
2021/07/07 02:39:37;;;;;;;3.45;1.23;;;;;;;21.83;51.53;101112.75;5014848;28;20496;-71
2021/07/07 02:42:03;;;;;;;3.00;1.83;;;;;;;21.80;51.13;101107.56;5014834;28;20029;-71
2021/07/07 02:44:28;;;;;;;6.13;1.75;;;;;;;21.83;51.29;101113.63;5014837;28;20044;-71
2021/07/07 02:46:53;;;;;;;2.35;1.73;;;;;;;21.82;51.18;101108.38;4997430;28;20037;-71
2021/07/07 02:49:20;;;;;;;3.47;1.38;;;;;;;21.83;51.52;101112.75;4997318;28;20503;-71
2021/07/07 02:51:45;;;;;;;2.63;1.70;;;;;;;21.82;51.28;101111.88;5015068;28;20034;-71
2021/07/07 02:54:11;;;;;;;5.43;2.00;;;;;;;21.84;51.20;101111.88;5014596;28;20026;-70
2021/07/07 02:56:36;;;;;;;3.67;2.10;;;;;;;21.80;51.35;101111.06;4997118;28;20615;-71
2021/07/07 02:59:01;;;;;;;7.10;1.90;;;;;;;21.83;51.39;101110.13;4997355;28;20034;-71
2021/07/07 03:01:27;;;;;;;3.05;1.50;;;;;;;21.83;51.21;101112.75;5014609;28;20055;-71
2021/07/07 03:03:52;;;;;;;2.63;1.40;;;;;;;21.83;51.40;101110.13;4996913;28;20061;-71
2021/07/07 03:06:19;;;;;;;3.83;1.55;;;;;;;21.83;51.30;101111.00;5014375;28;20384;-71
2021/07/07 03:08:44;;;;;;;2.58;1.65;;;;;;;21.83;51.20;101115.38;5014401;28;20092;-71
2021/07/07 03:11:10;;;;;;;4.90;1.70;;;;;;;21.82;51.31;101116.28;4996879;28;20041;-71
2021/07/07 03:13:35;;;;;;;3.47;1.42;;;;;;;21.79;51.17;101113.72;5014235;28;20136;-71
2021/07/07 03:16:02;;;;;;;3.75;1.90;;;;;;;21.81;51.23;101112.78;4997032;28;20040;-71
2021/07/07 03:18:28;;;;;;;2.80;1.80;;;;;;;21.83;51.18;101115.38;4997233;28;20503;-71
2021/07/07 03:20:54;;;;;;;3.55;1.73;;;;;;;21.81;51.34;101111.94;5013761;28;20117;-71
2021/07/07 03:23:21;;;;;;;3.10;1.63;;;;;;;21.81;51.51;101117.19;4996848;28;20199;-71
2021/07/07 03:25:49;;;;;;;2.40;1.38;;;;;;;21.81;51.18;101118.03;4996789;28;20037;-71
2021/07/07 03:28:16;;;;;;;2.72;1.48;;;;;;;21.81;51.28;101118.03;5014096;28;20025;-71
2021/07/07 03:30:41;;;;;;;2.92;1.63;;;;;;;21.77;51.17;101118.13;4996570;28;20040;-71
2021/07/07 03:33:06;;;;;;;2.55;1.88;;;;;;;21.81;51.25;101125.09;4996364;28;20026;-71
2021/07/07 03:35:33;;;;;;;4.22;1.67;;;;;;;21.81;51.03;101125.09;5013875;28;20033;-71
2021/07/07 03:37:58;;;;;;;4.28;1.77;;;;;;;21.78;51.17;101119.88;5014238;28;20059;-71
2021/07/07 03:40:26;;;;;;;2.03;1.30;;;;;;;21.81;51.31;101131.19;5014015;28;20034;-71
2021/07/07 03:42:51;;;;;;;3.30;2.08;;;;;;;21.80;51.21;101129.50;4996102;28;20443;-71
2021/07/07 03:45:18;;;;;;;4.97;1.75;;;;;;;21.81;51.40;101133.00;5014061;28;20030;-71
2021/07/07 03:47:44;;;;;;;2.55;1.60;;;;;;;21.77;51.34;101136.56;4996244;28;20107;-71
2021/07/07 03:50:10;;;;;;;2.50;1.42;;;;;;;21.76;51.28;101130.41;4996439;28;20037;-71
2021/07/07 03:52:36;;;;;;;2.10;1.30;;;;;;;21.80;51.30;101136.50;5013795;28;20032;-71
2021/07/07 03:55:04;;;;;;;2.28;1.63;;;;;;;21.79;51.37;101133.00;5013722;28;20038;-71
2021/07/07 03:57:30;;;;;;;3.25;1.70;;;;;;;21.74;51.27;101117.28;5013856;28;20464;-71
2021/07/07 03:59:55;;;;;;;2.88;1.50;;;;;;;21.80;51.49;101134.75;5013667;28;20034;-71
2021/07/07 04:02:21;;;;;;;3.30;1.77;;;;;;;21.80;51.51;101136.50;5013913;28;20109;-71
2021/07/07 04:04:46;;;;;;;6.22;2.17;;;;;;;21.77;51.49;101129.53;5013592;28;20476;-71
2021/07/07 04:07:12;;;;;;;3.65;1.80;;;;;;;21.79;51.55;101130.38;4979778;28;20081;-71
2021/07/07 04:09:37;;;;;;;3.35;1.60;;;;;;;21.79;51.46;101138.28;4996250;28;20088;-71
2021/07/07 04:12:03;;;;;;;2.50;1.60;;;;;;;21.78;51.43;101135.66;4996098;28;20408;-71
2021/07/07 04:14:29;;;;;;;2.65;1.52;;;;;;;21.79;51.33;101135.66;4979919;28;20188;-71
2021/07/07 04:16:56;;;;;;;2.45;1.38;;;;;;;21.81;51.36;101140.88;4979660;28;20036;-71
2021/07/07 04:19:23;;;;;;;7.72;1.42;;;;;;;21.82;51.56;101147.88;4995917;28;20026;-71
2021/07/07 04:21:49;;;;;;;4.72;2.08;;;;;;;21.82;51.43;101139.97;4995882;28;20056;-71
2021/07/07 04:24:15;;;;;;;3.65;1.67;;;;;;;21.81;51.37;101138.25;5013572;28;20034;-71
2021/07/07 04:26:41;;;;;;;2.67;1.48;;;;;;;21.83;51.74;101145.22;5013418;28;20084;-71
2021/07/07 04:29:07;;;;;;;2.90;2.15;;;;;;;21.85;51.70;101142.56;4995961;28;20053;-70
2021/07/07 04:31:36;;;;;;;4.60;1.65;;;;;;;21.87;51.55;101135.53;5013349;28;20100;-71
2021/07/07 04:34:03;;;;;;;2.55;1.63;;;;;;;21.89;51.71;101139.88;5017221;28;20042;-71
2021/07/07 04:36:29;;;;;;;1.90;1.40;;;;;;;21.87;51.78;101143.41;5017421;28;20029;-71
2021/07/07 04:38:55;;;;;;;1.80;1.27;;;;;;;21.89;51.81;101144.28;4999667;28;20044;-71
2021/07/07 04:41:20;;;;;;;2.25;1.45;;;;;;;21.91;52.02;101150.41;5017243;28;20100;-71
2021/07/07 04:43:45;;;;;;;2.47;1.65;;;;;;;21.91;52.01;101153.03;5017069;28;20461;-71
2021/07/07 04:46:11;;;;;;;2.72;1.48;;;;;;;21.90;51.98;101143.38;5017192;28;20080;-71
2021/07/07 04:48:36;;;;;;;1.88;1.60;;;;;;;21.90;52.33;101148.66;5017021;28;20026;-70
2021/07/07 04:51:02;;;;;;;2.83;1.50;;;;;;;21.93;52.30;101153.88;4999577;28;20092;-70
2021/07/07 04:53:28;;;;;;;2.33;1.60;;;;;;;21.90;52.21;101151.28;5016948;28;20380;-71
2021/07/07 04:55:53;;;;;;;1.52;1.17;;;;;;;21.91;52.43;101148.63;5017006;28;20026;-71
2021/07/07 04:58:18;;;;;;;2.95;1.30;;;;;;;21.96;52.50;101153.81;4999366;28;20030;-71
2021/07/07 05:00:44;;;;;;;2.33;1.35;;;;;;;21.92;52.39;101146.88;4999453;28;20424;-70
2021/07/07 05:03:09;;;;;;;1.80;1.35;;;;;;;21.96;52.27;101157.31;4999538;28;20033;-70
2021/07/07 05:05:34;;;;;;;2.10;1.30;;;;;;;21.95;52.43;101158.22;5016813;28;20129;-71
2021/07/07 05:08:00;;;;;;;1.90;1.50;;;;;;;21.93;52.46;101159.16;4998980;28;20396;-71
2021/07/07 05:10:26;;;;;;;2.30;1.35;;;;;;;21.92;52.59;101160.03;4999099;28;20057;-71
2021/07/07 05:12:52;;;;;;;2.22;1.40;;;;;;;21.90;52.69;101160.06;5016512;28;20357;-71
2021/07/07 05:15:18;;;;;;;2.90;1.23;;;;;;;21.88;52.72;101160.97;4982874;28;20033;-71
2021/07/07 05:17:46;;;;;;;5.82;2.03;;;;;;;21.63;51.03;101165.69;5016599;28;20055;-72
2021/07/07 05:20:12;;;;;;;7.10;2.47;;;;;;;21.14;51.91;101153.09;4982704;28;20092;-72
2021/07/07 05:22:40;;;;;;;5.85;2.08;;;;;;;21.03;51.76;101153.19;5016766;28;20032;-72
2021/07/07 05:25:05;;;;;;;3.72;2.20;;;;;;;20.95;52.14;101162.03;5016557;28;20032;-72
2021/07/07 05:27:31;;;;;;;4.82;2.55;;;;;;;21.04;52.02;101168.06;5016533;28;20033;-71
2021/07/07 05:29:57;;;;;;;4.88;2.30;;;;;;;20.82;52.11;101168.31;5016360;28;20080;-71
2021/07/07 05:32:22;;;;;;;5.18;2.50;;;;;;;20.70;53.01;101177.19;5016225;28;20030;-71
2021/07/07 05:34:49;;;;;;;6.57;2.30;;;;;;;21.02;52.13;101182.16;4998531;28;20088;-71
2021/07/07 05:37:20;;;;;;;5.43;2.10;;;;;;;20.99;52.34;101179.53;4998514;28;20034;-72
2021/07/07 05:39:45;;;;;;;8.60;2.47;;;;;;;21.09;51.80;101170.66;4999588;28;20032;-71
2021/07/07 05:42:13;;;;;;;6.53;2.20;;;;;;;21.26;51.68;101179.28;4998661;28;20030;-71
2021/07/07 05:44:39;;;;;;;3.90;2.05;;;;;;;21.30;51.49;101180.09;4981809;28;20427;-72
2021/07/07 05:47:04;;;;;;;6.47;3.05;;;;;;;21.28;51.36;101180.16;5015854;28;20026;-72
2021/07/07 05:49:29;;;;;;;5.22;1.85;;;;;;;21.35;51.42;101180.94;4998217;28;20037;-71
2021/07/07 05:51:55;;;;;;;6.95;2.90;;;;;;;21.47;51.19;101180.78;4998228;28;20076;-72
2021/07/07 05:54:20;;;;;;;4.28;2.30;;;;;;;21.43;51.47;101189.59;5015865;28;20030;-71
2021/07/07 05:56:45;;;;;;;5.63;2.15;;;;;;;21.51;51.36;101187.75;4998272;28;20033;-71
2021/07/07 05:59:11;;;;;;;4.00;2.33;;;;;;;21.56;50.85;101191.19;5015795;28;20038;-71
2021/07/07 06:01:36;;;;;;;4.80;2.20;;;;;;;21.59;51.02;101188.53;5016515;28;20088;-71
2021/07/07 06:04:01;;;;;;;4.60;2.50;;;;;;;21.62;51.01;101192.91;5016218;28;20026;-71
2021/07/07 06:06:27;;;;;;;4.32;2.03;;;;;;;21.64;50.77;101201.66;5016113;28;20034;-72
2021/07/07 06:08:52;;;;;;;7.63;2.80;;;;;;;21.65;50.73;101199.00;5016430;28;20030;-71
2021/07/07 06:11:17;;;;;;;4.35;2.42;;;;;;;21.67;51.15;101205.13;4998160;28;20030;-72
2021/07/07 06:13:43;;;;;;;6.63;2.25;;;;;;;21.69;50.74;101202.44;5015371;28;20447;-72
2021/07/07 06:16:08;;;;;;;4.50;1.77;;;;;;;21.72;50.77;101194.50;5015462;28;20033;-72
2021/07/07 06:18:33;;;;;;;4.07;2.80;;;;;;;21.77;50.82;101205.00;5015265;28;20026;-72
2021/07/07 06:20:59;;;;;;;7.07;2.30;;;;;;;21.69;50.85;101203.31;4997944;28;20057;-74
2021/07/07 06:23:24;;;;;;;6.32;2.40;;;;;;;21.74;50.61;101211.16;4965476;28;20026;-72
2021/07/07 06:25:49;;;;;;;5.03;2.40;;;;;;;21.79;50.48;101209.34;5015201;28;20037;-72
2021/07/07 06:28:15;;;;;;;5.85;2.40;;;;;;;21.82;50.58;101224.22;4997541;28;20017;-70
2021/07/07 06:30:40;;;;;;;5.55;2.42;;;;;;;21.88;50.37;101226.78;4965281;28;20026;-71
2021/07/07 06:33:06;;;;;;;3.42;2.17;;;;;;;21.90;50.46;101225.88;4997749;28;20026;-71
2021/07/07 06:35:35;;;;;;;8.90;3.13;;;;;;;21.95;50.52;101216.13;4997574;28;20029;-72
2021/07/07 06:38:01;;;;;;;5.22;2.35;;;;;;;21.91;50.57;101219.72;4998213;28;20030;-72
2021/07/07 06:40:26;;;;;;;5.30;2.60;;;;;;;21.51;51.80;101227.25;4997549;28;20354;-72
2021/07/07 06:42:52;;;;;;;9.63;3.08;;;;;;;21.60;51.68;101228.88;5014930;28;20438;-72
2021/07/07 06:45:19;;;;;;;8.35;2.58;;;;;;;21.86;50.87;101228.56;4981290;28;20044;-72
2021/07/07 06:47:45;;;;;;;8.60;2.70;;;;;;;21.86;50.50;101218.91;4997253;28;20026;-72
2021/07/07 06:50:13;;;;;;;5.03;2.47;;;;;;;21.76;50.73;101219.91;4997278;28;20032;-72
2021/07/07 06:52:39;;;;;;;7.97;2.70;;;;;;;21.69;51.16;101223.50;4997647;28;20033;-71
2021/07/07 06:55:06;;;;;;;6.38;3.00;;;;;;;21.83;50.94;101226.84;5014410;28;20030;-72
2021/07/07 06:57:34;;;;;;;;;;;;;;;21.89;50.58;101237.31;5014408;28;20034;-72
2021/07/07 07:00:11;;;;;;;3.70;1.90;;;;;;;22.03;50.18;101237.16;5014681;28;19948;-72
2021/07/07 07:02:36;;;;;;;3.95;2.40;;;;;;;21.92;50.34;101233.75;5014542;28;20030;-71
2021/07/07 07:05:05;;;;;;;3.45;2.50;;;;;;;22.02;49.81;101249.44;4997260;28;20018;-71
2021/07/07 07:07:30;;;;;;;5.50;2.08;;;;;;;21.87;50.11;101254.88;4997131;28;20045;-72
2021/07/07 07:09:59;;;;;;;4.07;2.33;;;;;;;21.83;50.24;101247.03;5014767;28;20038;-71
2021/07/07 07:12:28;;;;;;;6.28;3.20;;;;;;;21.91;50.06;101248.69;5014515;28;20046;-71
2021/07/07 07:14:54;;;;;;;6.30;2.28;;;;;;;21.80;50.10;101249.72;5014437;28;20038;-71
2021/07/07 07:17:23;;;;;;;4.82;1.80;;;;;;;21.85;49.79;101261.03;5014805;28;20545;-71
2021/07/07 07:19:49;;;;;;;7.35;2.40;;;;;;;21.79;50.26;101264.66;5014693;28;20029;-71
2021/07/07 07:22:14;;;;;;;;;;;;;;;21.83;50.19;101265.44;4997265;28;20030;-71
2021/07/07 07:24:40;;;;;;;5.63;2.60;;;;;;;21.81;50.33;101269.88;5014480;28;19913;-72
2021/07/07 07:27:05;;;;;;;5.57;2.40;;;;;;;21.84;49.98;101260.16;4980862;28;20034;-72
2021/07/07 07:29:31;;;;;;;2.88;1.73;;;;;;;21.74;50.08;101271.72;4996786;28;20018;-71
2021/07/07 07:31:57;;;;;;;4.47;2.63;;;;;;;21.72;50.43;101282.25;4996504;28;20030;-71
2021/07/07 07:34:22;;;;;;;6.85;2.25;;;;;;;21.67;50.06;101278.81;5014067;28;20030;-72
2021/07/07 07:36:50;;;;;;;2.67;2.08;;;;;;;21.64;50.46;101283.25;4980528;28;20069;-72
2021/07/07 07:39:20;;;;;;;5.63;2.22;;;;;;;21.59;50.63;101287.66;4981164;28;20026;-75
2021/07/07 07:41:45;;;;;;;3.85;2.58;;;;;;;21.41;51.60;101290.50;5014110;28;20026;-75
2021/07/07 07:44:11;;;;;;;3.28;2.05;;;;;;;21.43;51.46;101292.22;4980192;28;20590;-75
2021/07/07 07:46:38;;;;;;;5.13;2.50;;;;;;;21.35;51.90;101287.03;5014259;28;20104;-75
2021/07/07 07:49:05;;;;;;;4.90;2.50;;;;;;;21.37;51.87;101300.19;4996349;28;20033;-75
2021/07/07 07:51:31;;;;;;;6.38;3.08;;;;;;;21.24;52.02;101296.78;5014052;28;20040;-75
2021/07/07 07:53:57;;;;;;;5.78;3.05;;;;;;;21.23;51.95;101300.31;4980570;28;20421;-75
2021/07/07 07:56:23;;;;;;;3.80;2.55;;;;;;;21.11;52.52;101307.41;4996393;28;20530;-75
2021/07/07 07:58:48;;;;;;;4.20;2.20;;;;;;;21.14;52.58;101302.13;4980182;28;20042;-75
2021/07/07 08:01:14;;;;;;;4.88;2.38;;;;;;;21.26;52.36;101308.19;5014091;28;20026;-75
2021/07/07 08:03:39;;;;;;;9.05;2.53;;;;;;;21.38;51.71;101308.06;4996642;28;20029;-75
2021/07/07 08:06:05;;;;;;;5.18;2.92;;;;;;;21.32;51.81;101315.13;4996233;28;20033;-75
2021/07/07 08:08:32;;;;;;;5.43;2.47;;;;;;;21.39;51.64;101311.56;5013289;28;20030;-75
2021/07/07 08:10:57;;;;;;;4.43;2.40;;;;;;;21.23;51.71;101323.09;5014008;28;20072;-75
2021/07/07 08:13:23;;;;;;;5.88;2.92;;;;;;;21.27;51.55;101312.56;4996038;28;20077;-75
2021/07/07 08:15:48;;;;;;;4.45;2.53;;;;;;;21.33;51.37;101324.75;4963815;28;20030;-75
2021/07/07 08:18:13;;;;;;;10.05;2.95;;;;;;;21.42;51.13;101324.69;4996363;28;20121;-75
2021/07/07 08:20:39;;;;;;;6.28;2.50;;;;;;;21.46;51.26;101330.78;4996215;28;20041;-75
2021/07/07 08:23:04;;;;;;;5.20;2.72;;;;;;;21.46;51.61;101339.56;5013721;28;20060;-75
2021/07/07 08:25:30;;;;;;;5.25;2.50;;;;;;;21.42;51.74;101335.22;4996103;28;20038;-75
2021/07/07 08:27:56;;;;;;;3.83;1.98;;;;;;;21.41;51.78;101333.47;4996123;28;20034;-75
2021/07/07 08:30:22;;;;;;;3.78;2.10;;;;;;;21.40;51.76;101339.63;4979963;28;20030;-75
2021/07/07 08:32:47;;;;;;;3.15;2.58;;;;;;;21.41;51.84;101333.47;4996288;28;20373;-75
2021/07/07 08:35:13;;;;;;;6.22;2.88;;;;;;;21.47;51.83;101346.56;4995982;28;20041;-75
2021/07/07 08:37:40;;;;;;;14.35;3.55;;;;;;;21.44;51.97;101346.59;5013488;28;20109;-75
2021/07/07 08:40:07;;;;;;;4.22;2.42;;;;;;;21.49;51.88;101344.78;4995836;28;20033;-75
2021/07/07 08:42:35;;;;;;;5.18;2.50;;;;;;;21.51;51.90;101348.28;5013470;28;20052;-75
2021/07/07 08:45:09;;;;;;;9.63;2.65;;;;;;;21.55;51.92;101349.97;5013700;28;20053;-75
2021/07/07 08:47:40;;;;;;;7.57;2.65;;;;;;;21.52;52.03;101352.66;5013345;28;20046;-75
2021/07/07 08:50:11;;;;;;;4.95;2.33;;;;;;;21.53;52.09;101354.41;5013471;28;20465;-75
2021/07/07 08:52:38;;;;;;;3.92;2.00;;;;;;;21.52;52.17;101346.53;5013294;28;20029;-75
2021/07/07 08:55:09;;;;;;;5.70;2.80;;;;;;;21.48;52.46;101353.56;4995787;28;20084;-75
2021/07/07 08:57:42;;;;;;;4.45;2.40;;;;;;;21.48;52.45;101365.84;4995908;28;20033;-75
2021/07/07 09:00:29;;;;;;;3.45;2.53;;;;;;;21.47;52.50;101366.75;4997231;28;20439;-75
2021/07/07 09:02:57;;;;;;;3.80;2.22;;;;;;;21.51;52.52;101369.34;5006227;28;20060;-75
2021/07/07 09:05:25;;;;;;;5.53;2.45;;;;;;;21.49;52.25;101373.75;5014029;28;20081;-75
2021/07/07 09:07:50;;;;;;;3.67;2.30;;;;;;;21.51;52.10;101371.97;4997487;28;20072;-75
2021/07/07 09:10:27;;;;;;;5.82;2.75;;;;;;;21.53;52.03;101369.31;5015388;28;20033;-75
2021/07/07 09:12:52;;;;;;;3.88;2.60;;;;;;;21.49;52.11;101372.88;5015828;28;20074;-75
2021/07/07 09:15:18;;;;;;;6.03;2.58;;;;;;;21.44;51.92;101380.78;5015893;28;20064;-75
2021/07/07 09:17:50;;;;;;;5.22;2.58;;;;;;;21.41;52.04;101380.84;5014949;28;20026;-72
2021/07/07 09:20:17;;;;;;;3.92;2.22;;;;;;;21.44;51.74;101390.44;5015481;28;20061;-71
2021/07/07 09:22:43;;;;;;;4.20;2.22;;;;;;;21.43;51.58;101388.69;5016648;28;20072;-71
2021/07/07 09:25:08;;;;;;;4.38;2.38;;;;;;;21.43;51.68;101393.94;5016513;28;20026;-71
2021/07/07 09:27:36;;;;;;;3.20;2.42;;;;;;;21.36;51.51;101386.13;5016557;28;20042;-72
2021/07/07 09:30:12;;;;;;;3.40;2.65;;;;;;;21.37;51.87;101397.53;4999269;28;20495;-75
2021/07/07 09:32:44;;;;;;;7.43;3.80;;;;;;;21.34;51.67;101402.81;4999053;28;20076;-75
2021/07/07 09:35:10;;;;;;;4.35;2.70;;;;;;;21.36;51.81;101401.03;5016822;28;20026;-75
2021/07/07 09:37:42;;;;;;;3.17;2.75;;;;;;;21.40;51.99;101410.66;5000831;28;20057;-77
2021/07/07 09:40:09;;;;;;;5.05;2.90;;;;;;;21.35;52.20;101408.06;5019234;28;20030;-76
2021/07/07 09:42:40;;;;;;;4.63;2.40;;;;;;;21.44;52.08;101412.38;5017801;28;20053;-70
2021/07/07 09:45:07;;;;;;;6.03;3.00;;;;;;;21.55;51.85;101417.56;5000097;28;20121;-72
2021/07/07 09:47:33;;;;;;;6.95;3.72;;;;;;;21.61;51.89;101421.00;5001338;28;20026;-69
2021/07/07 09:49:59;;;;;;;6.40;3.20;;;;;;;21.70;51.70;101427.94;4998562;28;20079;-71
2021/07/07 09:52:30;;;;;;;4.30;3.08;;;;;;;21.72;51.84;101429.66;4982296;28;20030;-72
2021/07/07 09:54:56;;;;;;;4.00;3.13;;;;;;;21.77;51.88;101434.91;4998406;28;20379;-72
2021/07/07 09:57:22;;;;;;;5.10;3.40;;;;;;;21.77;51.67;101434.91;4982377;28;20034;-72
2021/07/07 09:59:48;;;;;;;4.65;2.90;;;;;;;21.82;51.93;101434.84;4998375;28;20044;-72
2021/07/07 10:02:15;;;;;;;6.38;3.10;;;;;;;21.81;52.24;101435.75;5015935;28;20030;-72
2021/07/07 10:04:43;;;;;;;7.43;3.58;;;;;;;21.88;51.97;101440.06;4998424;28;20395;-71
2021/07/07 10:07:10;;;;;;;5.05;3.50;;;;;;;21.88;51.71;101438.31;4998017;28;20038;-72
2021/07/07 10:09:39;;;;;;;5.32;2.60;;;;;;;21.91;51.88;101445.31;4998131;28;20074;-72
2021/07/07 10:12:05;;;;;;;2.92;2.53;;;;;;;21.91;52.34;101450.56;5015377;28;20061;-72
2021/07/07 10:14:30;;;;;;;4.95;3.05;;;;;;;21.90;52.43;101452.34;4981660;28;20380;-72
2021/07/07 10:16:56;;;;;;;4.20;2.72;;;;;;;21.92;52.19;101453.19;5015502;28;20040;-72
2021/07/07 10:19:22;;;;;;;5.43;2.63;;;;;;;21.98;52.15;101450.50;4981849;28;20040;-72
2021/07/07 10:21:49;;;;;;;4.00;2.65;;;;;;;22.04;52.07;101454.88;4997896;28;20030;-72
2021/07/07 10:24:18;;;;;;;2.88;2.33;;;;;;;22.03;52.13;101447.84;4997792;28;20458;-72
2021/07/07 10:26:45;;;;;;;5.50;2.72;;;;;;;22.02;52.39;101448.75;4997743;28;20026;-72
2021/07/07 10:29:12;;;;;;;4.60;2.90;;;;;;;22.04;52.28;101454.88;4997759;28;20396;-71
2021/07/07 10:31:48;;;;;;;5.32;2.70;;;;;;;22.01;52.25;101470.69;4997348;28;20060;-72
2021/07/07 10:34:15;;;;;;;4.97;2.90;;;;;;;21.98;52.41;101460.16;5015185;28;20372;-72
2021/07/07 10:36:42;;;;;;;3.65;2.83;;;;;;;21.99;52.50;101460.16;5015022;28;20041;-71
2021/07/07 10:39:09;;;;;;;4.07;2.55;;;;;;;21.99;52.52;101475.09;4997309;28;20380;-72
2021/07/07 10:41:47;;;;;;;5.63;2.80;;;;;;;21.99;52.46;101480.38;4997342;28;20181;-72
2021/07/07 10:44:24;;;;;;;3.80;2.53;;;;;;;22.00;52.45;101485.63;4997272;28;20029;-71
2021/07/07 10:47:11;;;;;;;3.92;2.40;;;;;;;22.02;52.52;101477.72;5014890;28;20030;-72
2021/07/07 10:49:46;;;;;;;4.82;3.72;;;;;;;22.03;52.38;101490.88;4997129;28;20033;-72
2021/07/07 10:52:16;;;;;;;3.92;2.80;;;;;;;22.07;52.28;101484.66;4997094;28;20038;-72
2021/07/07 10:54:56;;;;;;;4.25;3.60;;;;;;;22.08;52.26;101488.16;4997095;28;20030;-72
2021/07/07 10:57:24;;;;;;;3.30;2.13;;;;;;;22.12;52.08;101478.47;5015016;28;20029;-72
2021/07/07 10:59:54;;;;;;;4.25;3.10;;;;;;;22.18;51.91;101483.72;5014479;28;20480;-72
2021/07/07 11:02:21;;;;;;;2.83;2.47;;;;;;;22.19;51.95;101488.09;5014660;28;20049;-72
2021/07/07 11:04:47;;;;;;;3.33;2.60;;;;;;;22.20;52.05;101495.94;5014548;28;20068;-72
2021/07/07 11:07:31;;;;;;;3.50;2.58;;;;;;;22.18;52.25;101496.88;4980403;28;20029;-72
2021/07/07 11:10:17;;;;;;;4.20;2.53;;;;;;;22.17;52.08;101503.03;4996835;28;20029;-71
2021/07/07 11:12:43;;;;;;;4.30;2.30;;;;;;;22.20;52.12;101495.94;4997050;28;20052;-72
2021/07/07 11:15:08;;;;;;;3.90;3.03;;;;;;;22.21;52.08;101508.22;4996678;28;20026;-71
2021/07/07 11:17:42;;;;;;;3.58;2.67;;;;;;;22.22;52.10;101512.63;5014426;28;20025;-72
2021/07/07 11:20:08;;;;;;;;;;;;;;;22.24;52.09;101523.16;5014954;28;20053;-71
2021/07/07 11:22:35;;;;;;;2.92;2.58;;;;;;;22.26;52.13;101519.63;4996521;28;19910;-72
2021/07/07 11:25:04;;;;;;;4.25;2.75;;;;;;;22.25;51.93;101524.91;5014116;28;20022;-72